createdAt,value
2017-05-27T00:00:02.886Z,81.27
2017-05-27T00:01:04.125Z,81.37
2017-05-27T00:02:05.394Z,81.27
2017-05-27T00:03:06.630Z,81.75
2017-05-27T00:04:07.863Z,81.85
2017-05-27T00:05:09.143Z,81.95
2017-05-27T00:06:10.377Z,82.04
2017-05-27T00:07:11.739Z,82.32
2017-05-27T00:08:12.994Z,82.42
2017-05-27T00:09:14.245Z,82.32
2017-05-27T00:10:15.501Z,82.52
2017-05-27T00:11:16.751Z,82.14
2017-05-27T00:12:18.143Z,82.23
2017-05-27T00:13:19.430Z,82.32
2017-05-27T00:14:20.680Z,82.52
2017-05-27T00:15:21.916Z,82.52
2017-05-27T00:16:23.172Z,82.76
2017-05-27T00:17:24.415Z,83
2017-05-27T00:18:25.657Z,82.71
2017-05-27T00:19:26.922Z,83.09
2017-05-27T00:20:28.214Z,83.09
2017-05-27T00:21:29.556Z,82.9
2017-05-27T00:22:30.798Z,82.81
2017-05-27T00:23:32.052Z,82.9
2017-05-27T00:24:33.303Z,82.81
2017-05-27T00:25:34.550Z,83.19
2017-05-27T00:26:35.841Z,83.09
2017-05-27T00:27:37.122Z,83
2017-05-27T00:28:38.356Z,83.09
2017-05-27T00:29:39.602Z,83.09
2017-05-27T00:30:40.852Z,82.81
2017-05-27T00:31:42.113Z,82.62
2017-05-27T00:32:43.545Z,82.9
2017-05-27T00:33:44.790Z,82.71
2017-05-27T00:34:46.037Z,82.62
2017-05-27T00:35:47.289Z,82.62
2017-05-27T00:36:48.557Z,82.52
2017-05-27T00:37:49.912Z,82.81
2017-05-27T00:38:51.124Z,82.9
2017-05-27T00:39:52.375Z,82.9
2017-05-27T00:40:53.636Z,82.52
2017-05-27T00:41:54.855Z,82.62
2017-05-27T00:42:56.225Z,82.81
2017-05-27T00:43:57.523Z,82.71
2017-05-27T00:44:58.772Z,82.71
2017-05-27T00:46:00.028Z,82.52
2017-05-27T00:47:01.306Z,82.71
2017-05-27T00:48:02.563Z,82.52
2017-05-27T00:49:03.823Z,82.9
2017-05-27T00:50:05.099Z,82.81
2017-05-27T00:51:06.312Z,83.19
2017-05-27T00:52:07.564Z,83.09
2017-05-27T00:53:08.818Z,83.38
2017-05-27T00:54:10.052Z,83.29
2017-05-27T00:55:11.348Z,83.19
2017-05-27T00:56:12.695Z,83.29
2017-05-27T00:57:13.935Z,83.29
2017-05-27T00:58:15.195Z,83.38
2017-05-27T00:59:16.452Z,83.48
2017-05-27T01:00:17.674Z,82.81
2017-05-27T01:01:18.920Z,82.81
2017-05-27T01:02:20.269Z,82.52
2017-05-27T01:03:21.606Z,82.32
2017-05-27T01:04:22.837Z,82.52
2017-05-27T01:05:24.078Z,82.32
2017-05-27T01:06:25.400Z,82.32
2017-05-27T01:07:26.561Z,82.62
2017-05-27T01:08:27.826Z,82.9
2017-05-27T01:09:29.076Z,83.19
2017-05-27T01:10:30.321Z,83.09
2017-05-27T01:11:31.571Z,83.19
2017-05-27T01:12:32.837Z,83.09
2017-05-27T01:13:34.099Z,82.9
2017-05-27T01:14:35.326Z,83.48
2017-05-27T01:15:36.615Z,83
2017-05-27T01:16:37.834Z,83.86
2017-05-27T01:17:39.077Z,83.58
2017-05-27T01:18:40.360Z,83.58
2017-05-27T01:19:41.611Z,83.29
2017-05-27T01:20:42.868Z,83.58
2017-05-27T01:21:44.159Z,83.29
2017-05-27T01:22:45.566Z,83.09
2017-05-27T01:23:46.740Z,82.9
2017-05-27T01:24:47.964Z,83.38
2017-05-27T01:25:49.225Z,83
2017-05-27T01:26:50.472Z,82.81
2017-05-27T01:27:51.737Z,82.62
2017-05-27T01:28:52.968Z,82.71
2017-05-27T01:29:54.227Z,82.71
2017-05-27T01:30:55.590Z,82.81
2017-05-27T01:31:56.837Z,82.9
2017-05-27T01:32:58.092Z,83
2017-05-27T01:33:59.314Z,82.71
2017-05-27T01:35:00.567Z,82.81
2017-05-27T01:36:01.989Z,83.05
2017-05-27T01:37:03.282Z,83
2017-05-27T01:38:04.522Z,83.38
2017-05-27T01:39:05.767Z,83
2017-05-27T01:40:07.006Z,82.96
2017-05-27T01:41:08.306Z,82.76
2017-05-27T01:42:09.549Z,83
2017-05-27T01:43:10.808Z,82.62
2017-05-27T01:44:12.096Z,82.86
2017-05-27T01:45:13.333Z,83.05
2017-05-27T01:46:14.672Z,82.9
2017-05-27T01:47:16.201Z,83.34
2017-05-27T01:48:17.458Z,82.96
2017-05-27T01:49:18.709Z,82.86
2017-05-27T01:50:19.982Z,83.15
2017-05-27T01:51:21.216Z,83.15
2017-05-27T01:52:22.454Z,82.86
2017-05-27T01:53:23.746Z,83.72
2017-05-27T01:54:25.030Z,83.72
2017-05-27T01:55:26.265Z,83.63
2017-05-27T01:56:27.541Z,83.82
2017-05-27T01:57:28.802Z,83.82
2017-05-27T01:58:30.098Z,84.11
2017-05-27T01:59:31.276Z,84.58
2017-05-27T02:00:32.505Z,84.3
2017-05-27T02:01:33.746Z,84.39
2017-05-27T02:02:34.996Z,84.3
2017-05-27T02:03:36.293Z,84.39
2017-05-27T02:04:37.491Z,84.68
2017-05-27T02:05:38.751Z,84.88
2017-05-27T02:06:40.115Z,84.68
2017-05-27T02:07:41.355Z,84.49
2017-05-27T02:08:42.636Z,84.88
2017-05-27T02:09:43.845Z,84.58
2017-05-27T02:10:45.097Z,84.97
2017-05-27T02:11:46.360Z,84.88
2017-05-27T02:12:47.606Z,85.25
2017-05-27T02:13:48.848Z,85.02
2017-05-27T02:14:50.120Z,84.83
2017-05-27T02:15:51.392Z,85.12
2017-05-27T02:16:52.627Z,85.31
2017-05-27T02:17:53.979Z,85.79
2017-05-27T02:18:55.138Z,85.69
2017-05-27T02:19:56.378Z,85.88
2017-05-27T02:20:57.635Z,85.69
2017-05-27T02:21:58.877Z,85.79
2017-05-27T02:23:00.171Z,85.69
2017-05-27T02:24:01.416Z,85.69
2017-05-27T02:25:02.681Z,85.88
2017-05-27T02:26:03.942Z,86.27
2017-05-27T02:27:05.188Z,85.88
2017-05-27T02:28:06.415Z,85.88
2017-05-27T02:29:07.669Z,86.08
2017-05-27T02:30:08.947Z,86.36
2017-05-27T02:31:10.268Z,86.94
2017-05-27T02:32:11.518Z,86.74
2017-05-27T02:33:12.780Z,87.13
2017-05-27T02:34:14.020Z,86.94
2017-05-27T02:35:15.289Z,87.03
2017-05-27T02:36:16.642Z,86.74
2017-05-27T02:37:17.887Z,86.8
2017-05-27T02:38:19.230Z,87.66
2017-05-27T02:39:20.474Z,87.66
2017-05-27T02:40:21.719Z,87.56
2017-05-27T02:41:22.975Z,87.27
2017-05-27T02:42:24.223Z,87.47
2017-05-27T02:43:25.615Z,87.76
2017-05-27T02:44:26.809Z,87.95
2017-05-27T02:45:28.140Z,88.23
2017-05-27T02:46:29.367Z,88.43
2017-05-27T02:47:30.626Z,88.81
2017-05-27T02:48:32.009Z,88.62
2017-05-27T02:49:33.248Z,88.62
2017-05-27T02:50:34.505Z,88.62
2017-05-27T02:51:35.729Z,88.43
2017-05-27T02:52:36.959Z,89
2017-05-27T02:53:38.262Z,89
2017-05-27T02:54:39.526Z,88.71
2017-05-27T02:55:40.858Z,89
2017-05-27T02:56:42.129Z,89.19
2017-05-27T02:57:43.428Z,89.76
2017-05-27T02:58:44.691Z,89.48
2017-05-27T02:59:45.962Z,89.53
2017-05-27T03:00:47.211Z,89.24
2017-05-27T03:01:48.649Z,89.72
2017-05-27T03:02:49.871Z,90.01
2017-05-27T03:03:51.122Z,90.1
2017-05-27T03:04:52.380Z,90.87
2017-05-27T03:05:53.626Z,90.39
2017-05-27T03:06:54.997Z,90.67
2017-05-27T03:07:56.237Z,90.58
2017-05-27T03:08:57.490Z,90.77
2017-05-27T03:09:58.731Z,90.3
2017-05-27T03:10:59.981Z,90.3
2017-05-27T03:12:01.237Z,90.63
2017-05-27T03:13:02.471Z,90.58
2017-05-27T03:14:03.717Z,90.63
2017-05-27T03:15:04.963Z,90.48
2017-05-27T03:16:06.196Z,90.48
2017-05-27T03:17:07.457Z,90.48
2017-05-27T03:18:08.706Z,90.72
2017-05-27T03:19:10.057Z,90.44
2017-05-27T03:20:11.321Z,90.72
2017-05-27T03:21:12.580Z,90.63
2017-05-27T03:22:13.829Z,90.53
2017-05-27T03:23:15.073Z,90.53
2017-05-27T03:24:16.328Z,90.72
2017-05-27T03:25:17.598Z,90.72
2017-05-27T03:26:18.852Z,90.72
2017-05-27T03:27:20.098Z,90.34
2017-05-27T03:28:21.387Z,90.15
2017-05-27T03:29:22.635Z,90.44
2017-05-27T03:30:23.874Z,89.95
2017-05-27T03:31:25.117Z,90.05
2017-05-27T03:32:26.364Z,90.15
2017-05-27T03:33:27.654Z,90.24
2017-05-27T03:34:29.005Z,90.24
2017-05-27T03:35:30.200Z,90.15
2017-05-27T03:36:31.453Z,90.34
2017-05-27T03:37:32.746Z,90.15
2017-05-27T03:38:34.012Z,89.76
2017-05-27T03:39:35.258Z,89.76
2017-05-27T03:40:36.499Z,89.95
2017-05-27T03:41:37.754Z,89.86
2017-05-27T03:42:38.995Z,89.58
2017-05-27T03:43:40.302Z,89.19
2017-05-27T03:44:41.539Z,89.38
2017-05-27T03:45:42.786Z,89.58
2017-05-27T03:46:44.055Z,88.9
2017-05-27T03:47:45.299Z,89
2017-05-27T03:48:46.544Z,88.81
2017-05-27T03:49:47.811Z,89.09
2017-05-27T03:50:49.047Z,88.71
2017-05-27T03:51:50.304Z,88.71
2017-05-27T03:52:51.621Z,88.62
2017-05-27T03:53:52.873Z,88.52
2017-05-27T03:54:54.095Z,89
2017-05-27T03:55:55.336Z,88.43
2017-05-27T03:56:56.614Z,88.43
2017-05-27T03:57:57.975Z,88.23
2017-05-27T03:58:59.350Z,88.62
2017-05-27T04:00:00.509Z,88.33
2017-05-27T04:01:01.755Z,88.62
2017-05-27T04:02:03.009Z,88.09
2017-05-27T04:03:04.269Z,87.95
2017-05-27T04:04:05.831Z,87.8
2017-05-27T04:05:06.964Z,87.8
2017-05-27T04:06:08.213Z,87.8
2017-05-27T04:07:09.458Z,87.7
2017-05-27T04:08:10.729Z,87.32
2017-05-27T04:09:11.980Z,86.84
2017-05-27T04:10:13.214Z,86.94
2017-05-27T04:11:14.472Z,86.55
2017-05-27T04:12:15.723Z,87.13
2017-05-27T04:13:16.970Z,87.23
2017-05-27T04:14:18.246Z,86.36
2017-05-27T04:15:19.484Z,85.69
2017-05-27T04:16:20.743Z,85.79
2017-05-27T04:17:22.003Z,85.88
2017-05-27T04:18:23.323Z,86.27
2017-05-27T04:19:24.604Z,86.12
2017-05-27T04:20:25.803Z,85.69
2017-05-27T04:21:27.052Z,84.97
2017-05-27T04:22:28.305Z,85.45
2017-05-27T04:23:29.571Z,84.78
2017-05-27T04:24:30.796Z,84.49
2017-05-27T04:25:32.037Z,83.76
2017-05-27T04:26:33.277Z,83.09
2017-05-27T04:27:34.526Z,82.32
2017-05-27T04:28:35.773Z,82.32
2017-05-27T04:29:37.012Z,81.85
2017-05-27T04:30:38.270Z,82.14
2017-05-27T04:31:39.671Z,82.23
2017-05-27T04:32:40.890Z,81.85
2017-05-27T04:33:42.148Z,82.32
2017-05-27T04:34:43.386Z,82.42
2017-05-27T04:35:44.785Z,81.66
2017-05-27T04:36:46.133Z,81.66
2017-05-27T04:37:47.401Z,81.85
2017-05-27T04:38:48.632Z,81.37
2017-05-27T04:39:49.881Z,81.56
2017-05-27T04:40:51.138Z,81.18
2017-05-27T04:41:52.387Z,81.18
2017-05-27T04:42:53.652Z,81.46
2017-05-27T04:43:54.891Z,81.27
2017-05-27T04:44:56.129Z,80.89
2017-05-27T04:45:57.376Z,81.08
2017-05-27T04:46:58.638Z,80.93
2017-05-27T04:47:59.997Z,80.45
2017-05-27T04:49:01.392Z,80.45
2017-05-27T04:50:02.532Z,79.39
2017-05-27T04:51:03.778Z,79.24
2017-05-27T04:52:05.039Z,78.47
2017-05-27T04:53:06.296Z,78.09
2017-05-27T04:54:07.549Z,78
2017-05-27T04:55:08.796Z,78
2017-05-27T04:56:10.175Z,78
2017-05-27T04:57:11.434Z,77.61
2017-05-27T04:58:12.683Z,77.71
2017-05-27T04:59:13.950Z,76.75
2017-05-27T05:00:15.193Z,76.21
2017-05-27T05:01:16.478Z,75.63
2017-05-27T05:02:17.755Z,73.85
2017-05-27T05:03:19.008Z,71.71
2017-05-27T05:04:20.380Z,70.11
2017-05-27T05:05:21.629Z,66.39
2017-05-27T05:06:22.926Z,64.92
2017-05-27T05:07:24.204Z,63.31
2017-05-27T05:08:25.463Z,62.25
2017-05-27T05:09:26.714Z,61.68
2017-05-27T05:10:27.960Z,60.8
2017-05-27T05:11:29.207Z,61.38
2017-05-27T05:12:30.439Z,61.48
2017-05-27T05:13:31.688Z,61.87
2017-05-27T05:14:32.952Z,61.1
2017-05-27T05:15:34.186Z,61.1
2017-05-27T05:16:35.434Z,60.9
2017-05-27T05:17:36.798Z,60.8
2017-05-27T05:18:38.051Z,61
2017-05-27T05:19:39.294Z,60.71
2017-05-27T05:20:40.541Z,60.71
2017-05-27T05:21:41.789Z,60.45
2017-05-27T05:22:43.037Z,59.52
2017-05-27T05:23:44.330Z,57.42
2017-05-27T05:24:45.594Z,56.1
2017-05-27T05:25:46.867Z,55.62
2017-05-27T05:26:48.121Z,54.39
2017-05-27T05:27:49.361Z,54.13
2017-05-27T05:28:50.602Z,53.55
2017-05-27T05:29:51.849Z,52.51
2017-05-27T05:30:53.110Z,52.61
2017-05-27T05:31:54.389Z,52.39
2017-05-27T05:32:55.615Z,52.58
2017-05-27T05:33:56.874Z,53.25
2017-05-27T05:34:58.126Z,52.97
2017-05-27T05:35:59.375Z,52.48
2017-05-27T05:37:00.590Z,51.73
2017-05-27T05:38:01.960Z,50.6
2017-05-27T05:39:03.200Z,48.9
2017-05-27T05:40:04.420Z,48.06
2017-05-27T05:41:05.670Z,46.16
2017-05-27T05:42:06.921Z,44.17
2017-05-27T05:43:08.179Z,42.74
2017-05-27T05:44:09.434Z,40.83
2017-05-27T05:45:10.734Z,39.39
2017-05-27T05:46:12.014Z,38.64
2017-05-27T05:47:13.252Z,37.68
2017-05-27T05:48:14.518Z,37.12
2017-05-27T05:49:15.765Z,36.25
2017-05-27T05:50:17.113Z,34.91
2017-05-27T05:51:18.416Z,34.36
2017-05-27T05:52:19.676Z,33.58
2017-05-27T05:53:20.931Z,33.11
2017-05-27T05:54:22.204Z,31.95
2017-05-27T05:55:23.440Z,32.13
2017-05-27T05:56:24.735Z,31.87
2017-05-27T05:57:25.997Z,30.59
2017-05-27T05:58:27.281Z,30.4
2017-05-27T05:59:28.488Z,30.3
2017-05-27T06:00:29.755Z,30.12
2017-05-27T06:01:31.015Z,30.02
2017-05-27T06:02:32.314Z,29.84
2017-05-27T06:03:33.591Z,29.16
2017-05-27T06:04:34.829Z,29.25
2017-05-27T06:05:36.081Z,29.08
2017-05-27T06:06:37.356Z,27.84
2017-05-27T06:07:38.655Z,27.15
2017-05-27T06:08:39.868Z,26.2
2017-05-27T06:09:41.165Z,25.43
2017-05-27T06:10:42.507Z,25.13
2017-05-27T06:11:43.769Z,24.74
2017-05-27T06:12:45.055Z,25.02
2017-05-27T06:13:46.285Z,25.22
2017-05-27T06:14:47.534Z,25.72
2017-05-27T06:15:48.792Z,25.79
2017-05-27T06:16:50.100Z,25.98
2017-05-27T06:17:51.408Z,26.09
2017-05-27T06:18:52.660Z,26.75
2017-05-27T06:19:53.916Z,27.34
2017-05-27T06:20:55.222Z,27.44
2017-05-27T06:21:56.488Z,26.95
2017-05-27T06:22:57.786Z,27.62
2017-05-27T06:23:59.005Z,27.12
2017-05-27T06:25:00.266Z,27.52
2017-05-27T06:26:01.518Z,27.9
2017-05-27T06:27:02.760Z,27.81
2017-05-27T06:28:04.023Z,27.15
2017-05-27T06:29:05.303Z,26.75
2017-05-27T06:30:06.536Z,26.38
2017-05-27T06:31:07.793Z,25.23
2017-05-27T06:32:09.051Z,25.13
2017-05-27T06:33:10.314Z,25.12
2017-05-27T06:34:11.638Z,26.1
2017-05-27T06:35:12.887Z,25.42
2017-05-27T06:36:14.154Z,25.52
2017-05-27T06:37:15.405Z,24.06
2017-05-27T06:38:16.681Z,24.35
2017-05-27T06:39:17.940Z,25.52
2017-05-27T06:40:19.198Z,25.51
2017-05-27T06:41:20.543Z,25.12
2017-05-27T06:42:21.785Z,24.95
2017-05-27T06:43:23.035Z,24.86
2017-05-27T06:44:24.309Z,23.51
2017-05-27T06:45:25.553Z,22.83
2017-05-27T06:46:26.830Z,22.05
2017-05-27T06:47:28.148Z,22.34
2017-05-27T06:48:29.469Z,23.21
2017-05-27T06:49:30.695Z,24.06
2017-05-27T06:50:31.945Z,24.46
2017-05-27T06:51:33.205Z,23.86
2017-05-27T06:52:34.597Z,24.82
2017-05-27T06:53:35.908Z,25.61
2017-05-27T06:54:37.148Z,25.13
2017-05-27T06:55:38.401Z,24.97
2017-05-27T06:56:39.652Z,23.22
2017-05-27T06:57:40.919Z,22.16
2017-05-27T06:58:42.218Z,21.5
2017-05-27T06:59:43.439Z,20.43
2017-05-27T07:00:44.685Z,19.74
2017-05-27T07:01:45.937Z,20.03
2017-05-27T07:02:47.195Z,20.03
2017-05-27T07:03:48.551Z,20.24
2017-05-27T07:04:49.901Z,20.21
2017-05-27T07:05:51.089Z,20.98
2017-05-27T07:06:52.346Z,21.57
2017-05-27T07:07:53.611Z,21.37
2017-05-27T07:08:54.888Z,21.57
2017-05-27T07:09:56.247Z,21.37
2017-05-27T07:10:57.585Z,21.18
2017-05-27T07:11:58.794Z,20.8
2017-05-27T07:13:00.051Z,20.43
2017-05-27T07:14:01.327Z,19.84
2017-05-27T07:15:02.579Z,19.95
2017-05-27T07:16:03.925Z,19.84
2017-05-27T07:17:05.196Z,20.31
2017-05-27T07:18:06.462Z,21.15
2017-05-27T07:19:07.715Z,22.62
2017-05-27T07:20:08.993Z,22.62
2017-05-27T07:21:10.255Z,22.25
2017-05-27T07:22:11.546Z,21.68
2017-05-27T07:23:12.811Z,21.01
2017-05-27T07:24:14.068Z,20.55
2017-05-27T07:25:15.325Z,19.27
2017-05-27T07:26:16.608Z,18.3
2017-05-27T07:27:17.917Z,18.79
2017-05-27T07:28:19.194Z,19.37
2017-05-27T07:29:20.457Z,19.17
2017-05-27T07:30:21.744Z,19.17
2017-05-27T07:31:23.018Z,19.56
2017-05-27T07:32:24.312Z,19.74
2017-05-27T07:33:25.561Z,19.09
2017-05-27T07:34:26.824Z,18.69
2017-05-27T07:35:28.249Z,17.82
2017-05-27T07:36:29.602Z,17.82
2017-05-27T07:37:30.909Z,17.53
2017-05-27T07:38:32.114Z,17.6
2017-05-27T07:39:33.398Z,19.44
2017-05-27T07:40:34.737Z,19.84
2017-05-27T07:41:36.002Z,19.46
2017-05-27T07:42:37.260Z,18.78
2017-05-27T07:43:38.542Z,18.2
2017-05-27T07:44:39.829Z,18.01
2017-05-27T07:45:41.200Z,18.3
2017-05-27T07:46:42.587Z,18.29
2017-05-27T07:47:43.863Z,18.4
2017-05-27T07:48:45.123Z,18.2
2017-05-27T07:49:46.396Z,18.1
2017-05-27T07:50:47.672Z,17.43
2017-05-27T07:51:48.932Z,17.61
2017-05-27T07:52:50.187Z,17.03
2017-05-27T07:53:51.441Z,16.55
2017-05-27T07:54:52.695Z,16.65
2017-05-27T07:55:53.994Z,16.55
2017-05-27T07:56:55.244Z,16.17
2017-05-27T07:57:56.606Z,15.09
2017-05-27T07:58:57.863Z,14.8
2017-05-27T07:59:59.134Z,15
2017-05-27T08:01:00.392Z,14.4
2017-05-27T08:02:01.658Z,15.08
2017-05-27T08:03:02.951Z,15.75
2017-05-27T08:04:04.217Z,16.23
2017-05-27T08:05:05.493Z,17
2017-05-27T08:06:06.758Z,17.12
2017-05-27T08:07:08.003Z,16.64
2017-05-27T08:08:09.269Z,16.06
2017-05-27T08:09:10.523Z,15.67
2017-05-27T08:10:11.883Z,15.85
2017-05-27T08:11:13.167Z,15.56
2017-05-27T08:12:14.389Z,15.27
2017-05-27T08:13:15.671Z,15.19
2017-05-27T08:14:16.919Z,14.71
2017-05-27T08:15:18.231Z,13.62
2017-05-27T08:16:19.469Z,13.43
2017-05-27T08:17:20.727Z,14
2017-05-27T08:18:21.991Z,15.18
2017-05-27T08:19:23.234Z,15.26
2017-05-27T08:20:24.511Z,15.46
2017-05-27T08:21:25.782Z,15.46
2017-05-27T08:22:27.039Z,15.08
2017-05-27T08:23:28.333Z,14.48
2017-05-27T08:24:29.657Z,14.2
2017-05-27T08:25:30.914Z,14
2017-05-27T08:26:32.175Z,14.88
2017-05-27T08:27:33.450Z,14.95
2017-05-27T08:28:34.731Z,15.64
2017-05-27T08:29:36.005Z,15.84
2017-05-27T08:30:37.270Z,16.14
2017-05-27T08:31:38.530Z,15.75
2017-05-27T08:32:39.811Z,15.18
2017-05-27T08:33:41.112Z,14.78
2017-05-27T08:34:42.432Z,14.98
2017-05-27T08:35:43.822Z,14.59
2017-05-27T08:36:45.086Z,14.2
2017-05-27T08:37:46.361Z,14.09
2017-05-27T08:38:47.611Z,13.81
2017-05-27T08:39:48.882Z,13.82
2017-05-27T08:40:50.242Z,13.02
2017-05-27T08:41:51.599Z,12.43
2017-05-27T08:42:52.846Z,13.32
2017-05-27T08:43:54.124Z,13.62
2017-05-27T08:44:55.390Z,13.41
2017-05-27T08:45:56.672Z,14.29
2017-05-27T08:46:57.955Z,14.09
2017-05-27T08:47:59.222Z,14.2
2017-05-27T08:49:00.491Z,13.89
2017-05-27T08:50:01.760Z,14.47
2017-05-27T08:51:03.199Z,15.36
2017-05-27T08:52:04.452Z,15.45
2017-05-27T08:53:05.963Z,14.67
2017-05-27T08:54:07.213Z,14.58
2017-05-27T08:55:08.518Z,14.77
2017-05-27T08:56:09.762Z,15.45
2017-05-27T08:57:11.045Z,14.97
2017-05-27T08:58:12.303Z,14.39
2017-05-27T08:59:13.624Z,13.91
2017-05-27T09:00:14.913Z,13.53
2017-05-27T09:01:16.223Z,12.65
2017-05-27T09:02:17.500Z,11.96
2017-05-27T09:03:18.793Z,12.05
2017-05-27T09:04:20.077Z,12.24
2017-05-27T09:05:21.346Z,12.45
2017-05-27T09:06:22.664Z,12.35
2017-05-27T09:07:23.947Z,11.95
2017-05-27T09:08:25.190Z,12.53
2017-05-27T09:09:26.507Z,12.64
2017-05-27T09:10:27.810Z,12.05
2017-05-27T09:11:29.082Z,12.06
2017-05-27T09:12:30.345Z,11.27
2017-05-27T09:13:31.606Z,11.07
2017-05-27T09:14:32.861Z,11.19
2017-05-27T09:15:34.155Z,10.49
2017-05-27T09:16:35.441Z,10.5
2017-05-27T09:17:36.698Z,10.28
2017-05-27T09:18:37.963Z,10.87
2017-05-27T09:19:39.232Z,11.26
2017-05-27T09:20:40.518Z,11.16
2017-05-27T09:21:41.792Z,11.26
2017-05-27T09:22:43.051Z,11.36
2017-05-27T09:23:44.316Z,11.46
2017-05-27T09:24:45.576Z,11.26
2017-05-27T09:25:46.941Z,11.25
2017-05-27T09:26:48.315Z,12.15
2017-05-27T09:27:49.597Z,11.16
2017-05-27T09:28:50.862Z,11.68
2017-05-27T09:29:52.128Z,10.39
2017-05-27T09:30:53.384Z,10.2
2017-05-27T09:31:54.675Z,10.4
2017-05-27T09:32:55.954Z,10.1
2017-05-27T09:33:57.223Z,9.61
2017-05-27T09:34:58.480Z,9.31
2017-05-27T09:35:59.746Z,10.39
2017-05-27T09:37:01.019Z,10.78
2017-05-27T09:38:02.321Z,11.17
2017-05-27T09:39:03.670Z,11.07
2017-05-27T09:40:04.952Z,10.47
2017-05-27T09:41:06.237Z,10.48
2017-05-27T09:42:07.518Z,10.28
2017-05-27T09:43:08.852Z,10.97
2017-05-27T09:44:10.149Z,10.97
2017-05-27T09:45:11.395Z,11.36
2017-05-27T09:46:12.689Z,11.85
2017-05-27T09:47:13.957Z,11.74
2017-05-27T09:48:15.245Z,12.15
2017-05-27T09:49:16.483Z,11.95
2017-05-27T09:50:17.780Z,11.95
2017-05-27T09:51:19.033Z,11.45
2017-05-27T09:52:20.312Z,11.26
2017-05-27T09:53:21.585Z,10.97
2017-05-27T09:54:22.881Z,10.29
2017-05-27T09:55:24.280Z,9.81
2017-05-27T09:56:25.618Z,10.1
2017-05-27T09:57:26.862Z,9.59
2017-05-27T09:58:28.129Z,10.1
2017-05-27T09:59:29.449Z,10
2017-05-27T10:00:30.711Z,9.4
2017-05-27T10:01:32.026Z,9.3
2017-05-27T10:02:33.309Z,9.5
2017-05-27T10:03:34.566Z,9.2
2017-05-27T10:04:35.828Z,9
2017-05-27T10:05:37.123Z,9.09
2017-05-27T10:06:38.379Z,9
2017-05-27T10:07:39.635Z,9
2017-05-27T10:08:40.903Z,10.38
2017-05-27T10:09:42.180Z,11.06
2017-05-27T10:10:43.432Z,11.44
2017-05-27T10:11:44.710Z,12.13
2017-05-27T10:12:45.980Z,12.72
2017-05-27T10:13:47.248Z,12.52
2017-05-27T10:14:48.523Z,12.82
2017-05-27T10:15:49.834Z,12.63
2017-05-27T10:16:51.093Z,12.05
2017-05-27T10:17:52.363Z,11.37
2017-05-27T10:18:53.622Z,10.77
2017-05-27T10:19:54.892Z,10.08
2017-05-27T10:20:56.230Z,10.86
2017-05-27T10:21:57.472Z,11.44
2017-05-27T10:22:58.759Z,12.23
2017-05-27T10:24:00.020Z,12.41
2017-05-27T10:25:01.450Z,13.01
2017-05-27T10:26:02.690Z,12.33
2017-05-27T10:27:03.941Z,11.74
2017-05-27T10:28:05.213Z,11.82
2017-05-27T10:29:06.497Z,12.5
2017-05-27T10:30:07.795Z,13.96
2017-05-27T10:31:09.056Z,14.72
2017-05-27T10:32:10.357Z,15.61
2017-05-27T10:33:11.626Z,15.89
2017-05-27T10:34:12.887Z,15.89
2017-05-27T10:35:14.153Z,15.5
2017-05-27T10:36:15.411Z,15.89
2017-05-27T10:37:16.714Z,16.28
2017-05-27T10:38:18.000Z,17.35
2017-05-27T10:39:19.268Z,18.31
2017-05-27T10:40:20.521Z,19.65
2017-05-27T10:41:21.796Z,21.09
2017-05-27T10:42:23.077Z,22.91
2017-05-27T10:43:24.349Z,23.8
2017-05-27T10:44:25.729Z,24.57
2017-05-27T10:45:26.989Z,25.54
2017-05-27T10:46:28.250Z,25.04
2017-05-27T10:47:29.550Z,25.81
2017-05-27T10:48:30.890Z,26.38
2017-05-27T10:49:32.267Z,26.67
2017-05-27T10:50:33.530Z,27.26
2017-05-27T10:51:34.805Z,27.73
2017-05-27T10:52:36.062Z,28.79
2017-05-27T10:53:37.313Z,29.67
2017-05-27T10:54:38.734Z,29.18
2017-05-27T10:55:40.007Z,29.38
2017-05-27T10:56:41.252Z,30.24
2017-05-27T10:57:42.527Z,29.85
2017-05-27T10:58:43.796Z,30.42
2017-05-27T10:59:45.145Z,31.28
2017-05-27T11:00:46.494Z,31.48
2017-05-27T11:01:47.741Z,31.28
2017-05-27T11:02:48.991Z,30.6
2017-05-27T11:03:50.259Z,30.51
2017-05-27T11:04:51.539Z,31.37
2017-05-27T11:05:52.828Z,31.56
2017-05-27T11:06:54.129Z,32.13
2017-05-27T11:07:55.420Z,32.13
2017-05-27T11:08:56.673Z,31.93
2017-05-27T11:09:57.931Z,32.11
2017-05-27T11:10:59.187Z,32.32
2017-05-27T11:12:00.562Z,31.84
2017-05-27T11:13:01.825Z,32.13
2017-05-27T11:14:03.093Z,32.42
2017-05-27T11:15:04.361Z,32.23
2017-05-27T11:16:05.633Z,31.93
2017-05-27T11:17:06.939Z,31.45
2017-05-27T11:18:08.196Z,31.34
2017-05-27T11:19:09.476Z,32.02
2017-05-27T11:20:10.778Z,32.4
2017-05-27T11:21:12.021Z,32.5
2017-05-27T11:22:13.272Z,32.5
2017-05-27T11:23:14.553Z,32.89
2017-05-27T11:24:15.841Z,33.28
2017-05-27T11:25:17.084Z,33.95
2017-05-27T11:26:18.311Z,34.63
2017-05-27T11:27:19.564Z,34.63
2017-05-27T11:28:20.995Z,35.31
2017-05-27T11:29:22.383Z,35.21
2017-05-27T11:30:23.666Z,35.31
2017-05-27T11:31:24.920Z,34.82
2017-05-27T11:32:26.174Z,34.72
2017-05-27T11:33:27.459Z,34.63
2017-05-27T11:34:28.717Z,34.74
2017-05-27T11:35:29.987Z,34.16
2017-05-27T11:36:31.210Z,34.06
2017-05-27T11:37:32.483Z,33.67
2017-05-27T11:38:33.753Z,33.86
2017-05-27T11:39:34.996Z,33.65
2017-05-27T11:40:36.256Z,34.05
2017-05-27T11:41:37.531Z,34.63
2017-05-27T11:42:38.787Z,34.82
2017-05-27T11:43:40.044Z,34.43
2017-05-27T11:44:41.293Z,34.42
2017-05-27T11:45:42.544Z,34.7
2017-05-27T11:46:43.811Z,34.53
2017-05-27T11:47:45.119Z,35
2017-05-27T11:48:46.465Z,34.42
2017-05-27T11:49:47.788Z,34.63
2017-05-27T11:50:49.043Z,34.72
2017-05-27T11:51:50.324Z,35.02
2017-05-27T11:52:51.600Z,33.26
2017-05-27T11:53:52.846Z,32.7
2017-05-27T11:54:54.104Z,32.21
2017-05-27T11:55:55.401Z,32.02
2017-05-27T11:56:56.658Z,32.5
2017-05-27T11:57:57.912Z,31.24
2017-05-27T11:58:59.206Z,31.53
2017-05-27T12:00:00.645Z,31.81
2017-05-27T12:01:01.874Z,31.92
2017-05-27T12:02:03.157Z,32.39
2017-05-27T12:03:04.405Z,32
2017-05-27T12:04:05.652Z,31.41
2017-05-27T12:05:06.978Z,31.34
2017-05-27T12:06:08.228Z,31.03
2017-05-27T12:07:09.481Z,30.93
2017-05-27T12:08:10.752Z,31.63
2017-05-27T12:09:11.991Z,31.13
2017-05-27T12:10:13.256Z,31.92
2017-05-27T12:11:14.518Z,31.14
2017-05-27T12:12:15.764Z,30.75
2017-05-27T12:13:17.021Z,31.24
2017-05-27T12:14:18.278Z,31.24
2017-05-27T12:15:19.515Z,31.41
2017-05-27T12:16:20.774Z,31.92
2017-05-27T12:17:22.040Z,31.24
2017-05-27T12:18:23.290Z,31.34
2017-05-27T12:19:24.550Z,31.24
2017-05-27T12:20:25.804Z,31.24
2017-05-27T12:21:27.103Z,31.04
2017-05-27T12:22:28.323Z,30.65
2017-05-27T12:23:29.575Z,30.46
2017-05-27T12:24:30.944Z,30.65
2017-05-27T12:25:32.254Z,31.53
2017-05-27T12:26:33.574Z,31.14
2017-05-27T12:27:34.771Z,31.14
2017-05-27T12:28:36.024Z,30.46
2017-05-27T12:29:37.285Z,30.65
2017-05-27T12:30:38.716Z,30.77
2017-05-27T12:31:39.969Z,30.87
2017-05-27T12:32:41.244Z,30.67
2017-05-27T12:33:42.500Z,30.38
2017-05-27T12:34:43.744Z,30.36
2017-05-27T12:35:45.003Z,30.36
2017-05-27T12:36:46.254Z,30.17
2017-05-27T12:37:47.503Z,31.04
2017-05-27T12:38:48.817Z,30.28
2017-05-27T12:39:50.100Z,30.08
2017-05-27T12:40:51.368Z,29.6
2017-05-27T12:41:52.626Z,29.19
2017-05-27T12:42:53.877Z,29
2017-05-27T12:43:55.173Z,29.29
2017-05-27T12:44:56.441Z,29.29
2017-05-27T12:45:57.699Z,29.78
2017-05-27T12:46:58.976Z,30.17
2017-05-27T12:48:00.246Z,29.49
2017-05-27T12:49:01.661Z,30.36
2017-05-27T12:50:02.865Z,29.88
2017-05-27T12:51:04.107Z,29.97
2017-05-27T12:52:05.354Z,30.07
2017-05-27T12:53:06.674Z,29.29
2017-05-27T12:54:07.906Z,29.1
2017-05-27T12:55:09.181Z,29.88
2017-05-27T12:56:10.510Z,30.36
2017-05-27T12:57:11.777Z,29.49
2017-05-27T12:58:13.023Z,29.49
2017-05-27T12:59:14.269Z,28.7
2017-05-27T13:00:15.537Z,28.51
2017-05-27T13:01:16.898Z,28.32
2017-05-27T13:02:18.152Z,28.61
2017-05-27T13:03:19.404Z,29.19
2017-05-27T13:04:20.648Z,29.58
2017-05-27T13:05:21.891Z,29.58
2017-05-27T13:06:23.169Z,29.49
2017-05-27T13:07:24.436Z,29.19
2017-05-27T13:08:25.735Z,29.49
2017-05-27T13:09:26.976Z,29.78
2017-05-27T13:10:28.245Z,29.49
2017-05-27T13:11:29.512Z,29.11
2017-05-27T13:12:30.819Z,28.92
2017-05-27T13:13:32.104Z,28.82
2017-05-27T13:14:33.357Z,28.82